Woodcrest, California
Current Conditions -  °F | °C
As of 11:53 AM on Thursday 27 Nov 2014 (Local Time) from KRAL Reporting Station
Clear Clear  
Wind Chill: 86°   Ceiling: Unl
Heat Index: 86°   Visibility: 10mi
Dew Point: 18°   Wind: 0mph
Humidity: 8%   Direction: NA
Pressure: 30.08"   Gusts: NA
Location:  33.9119°N, 117.4°W
Report Text: KRAL 271953Z 00000KT 10SM CLR 30/M08 A3008 RMK AO2 SLP169 T03001078 $
Loading
Personal Weather Stations






























Interactive Weather Map New forecast layout! Learn more

10-Day Weather Forecast

Advertisements
Track Severe Weather on mobile